sensor_id;sensor_type;location;lat;lon;timestamp;P1;durP1;ratioP1;P2;durP2;ratioP2
20824;SDS011;10573;50.936;6.978;2024-01-07T00:01:39;42.13;;;26.43;;
20824;SDS011;10573;50.936;6.978;2024-01-07T00:04:05;37.38;;;24.38;;
20824;SDS011;10573;50.936;6.978;2024-01-07T00:06:30;40.60;;;25.67;;
20824;SDS011;10573;50.936;6.978;2024-01-07T00:08:55;36.87;;;23.57;;
20824;SDS011;10573;50.936;6.978;2024-01-07T00:11:21;33.83;;;22.60;;
20824;SDS011;10573;50.936;6.978;2024-01-07T00:13:48;33.75;;;22.13;;
20824;SDS011;10573;50.936;6.978;2024-01-07T00:16:13;31.97;;;21.33;;
20824;SDS011;10573;50.936;6.978;2024-01-07T00:18:39;30.25;;;20.42;;
20824;SDS011;10573;50.936;6.978;2024-01-07T00:21:04;31.87;;;21.37;;
20824;SDS011;10573;50.936;6.978;2024-01-07T00:23:29;29.30;;;20.07;;
20824;SDS011;10573;50.936;6.978;2024-01-07T00:25:55;29.63;;;20.00;;
20824;SDS011;10573;50.936;6.978;2024-01-07T00:28:20;27.38;;;18.35;;
20824;SDS011;10573;50.936;6.978;2024-01-07T00:30:46;28.37;;;18.83;;
20824;SDS011;10573;50.936;6.978;2024-01-07T00:33:11;28.93;;;19.27;;
20824;SDS011;10573;50.936;6.978;2024-01-07T00:35:36;29.08;;;20.73;;
20824;SDS011;10573;50.936;6.978;2024-01-07T00:38:02;29.83;;;20.33;;
20824;SDS011;10573;50.936;6.978;2024-01-07T00:40:27;27.17;;;19.03;;
20824;SDS011;10573;50.936;6.978;2024-01-07T00:42:52;27.43;;;19.57;;
20824;SDS011;10573;50.936;6.978;2024-01-07T00:45:18;26.20;;;18.30;;
20824;SDS011;10573;50.936;6.978;2024-01-07T00:47:43;24.33;;;17.53;;
20824;SDS011;10573;50.936;6.978;2024-01-07T00:50:09;26.33;;;17.50;;
20824;SDS011;10573;50.936;6.978;2024-01-07T00:52:35;23.63;;;17.70;;
20824;SDS011;10573;50.936;6.978;2024-01-07T00:55:02;25.35;;;18.00;;
20824;SDS011;10573;50.936;6.978;2024-01-07T00:57:29;24.95;;;17.13;;
20824;SDS011;10573;50.936;6.978;2024-01-07T00:59:55;24.57;;;17.73;;
20824;SDS011;10573;50.936;6.978;2024-01-07T01:02:20;23.03;;;16.70;;
20824;SDS011;10573;50.936;6.978;2024-01-07T01:04:45;26.45;;;17.15;;
20824;SDS011;10573;50.936;6.978;2024-01-07T01:07:11;24.85;;;17.17;;
20824;SDS011;10573;50.936;6.978;2024-01-07T01:09:36;23.17;;;17.20;;
20824;SDS011;10573;50.936;6.978;2024-01-07T01:12:02;21.67;;;16.03;;
20824;SDS011;10573;50.936;6.978;2024-01-07T01:14:27;24.25;;;16.73;;
20824;SDS011;10573;50.936;6.978;2024-01-07T01:16:52;22.50;;;16.77;;
20824;SDS011;10573;50.936;6.978;2024-01-07T01:19:18;23.27;;;16.50;;
20824;SDS011;10573;50.936;6.978;2024-01-07T01:21:43;22.03;;;15.50;;
20824;SDS011;10573;50.936;6.978;2024-01-07T01:24:09;21.80;;;15.63;;
20824;SDS011;10573;50.936;6.978;2024-01-07T01:26:34;21.00;;;15.70;;
20824;SDS011;10573;50.936;6.978;2024-01-07T01:29:00;21.03;;;15.70;;
20824;SDS011;10573;50.936;6.978;2024-01-07T01:31:25;18.60;;;13.47;;
20824;SDS011;10573;50.936;6.978;2024-01-07T01:33:50;16.88;;;13.23;;
20824;SDS011;10573;50.936;6.978;2024-01-07T01:36:16;16.73;;;12.70;;
20824;SDS011;10573;50.936;6.978;2024-01-07T01:38:41;17.80;;;13.17;;
20824;SDS011;10573;50.936;6.978;2024-01-07T01:41:06;16.02;;;12.52;;
20824;SDS011;10573;50.936;6.978;2024-01-07T01:43:32;16.33;;;13.20;;
20824;SDS011;10573;50.936;6.978;2024-01-07T01:45:58;16.70;;;12.50;;
20824;SDS011;10573;50.936;6.978;2024-01-07T01:48:23;16.33;;;12.47;;
20824;SDS011;10573;50.936;6.978;2024-01-07T01:50:50;15.25;;;11.77;;
20824;SDS011;10573;50.936;6.978;2024-01-07T01:53:16;15.13;;;11.40;;
20824;SDS011;10573;50.936;6.978;2024-01-07T01:55:42;15.43;;;11.97;;
20824;SDS011;10573;50.936;6.978;2024-01-07T01:58:12;15.87;;;12.47;;
20824;SDS011;10573;50.936;6.978;2024-01-07T02:00:38;14.90;;;11.30;;
20824;SDS011;10573;50.936;6.978;2024-01-07T02:03:04;15.50;;;12.30;;
20824;SDS011;10573;50.936;6.978;2024-01-07T02:05:30;15.90;;;11.77;;
20824;SDS011;10573;50.936;6.978;2024-01-07T02:07:56;12.43;;;10.10;;
20824;SDS011;10573;50.936;6.978;2024-01-07T02:10:23;14.63;;;11.02;;
20824;SDS011;10573;50.936;6.978;2024-01-07T02:12:48;13.70;;;11.23;;
20824;SDS011;10573;50.936;6.978;2024-01-07T02:15:14;13.77;;;10.93;;
20824;SDS011;10573;50.936;6.978;2024-01-07T02:17:40;14.52;;;12.45;;
20824;SDS011;10573;50.936;6.978;2024-01-07T02:20:06;13.80;;;11.18;;
20824;SDS011;10573;50.936;6.978;2024-01-07T02:22:31;14.18;;;11.57;;
20824;SDS011;10573;50.936;6.978;2024-01-07T02:24:57;14.93;;;11.87;;
20824;SDS011;10573;50.936;6.978;2024-01-07T02:27:22;15.93;;;11.85;;
20824;SDS011;10573;50.936;6.978;2024-01-07T02:29:49;14.82;;;12.10;;
20824;SDS011;10573;50.936;6.978;2024-01-07T02:32:15;15.77;;;11.90;;
20824;SDS011;10573;50.936;6.978;2024-01-07T02:34:40;15.75;;;11.85;;
20824;SDS011;10573;50.936;6.978;2024-01-07T02:37:05;14.10;;;11.33;;
20824;SDS011;10573;50.936;6.978;2024-01-07T02:39:31;16.97;;;12.87;;
20824;SDS011;10573;50.936;6.978;2024-01-07T02:41:56;15.38;;;12.55;;
20824;SDS011;10573;50.936;6.978;2024-01-07T02:44:22;17.13;;;12.57;;
20824;SDS011;10573;50.936;6.978;2024-01-07T02:46:47;17.73;;;13.17;;
20824;SDS011;10573;50.936;6.978;2024-01-07T02:49:13;18.07;;;13.40;;
20824;SDS011;10573;50.936;6.978;2024-01-07T02:51:38;17.33;;;13.47;;
20824;SDS011;10573;50.936;6.978;2024-01-07T02:54:04;18.38;;;13.25;;
20824;SDS011;10573;50.936;6.978;2024-01-07T02:56:29;21.02;;;14.55;;
20824;SDS011;10573;50.936;6.978;2024-01-07T02:58:54;23.23;;;16.10;;
20824;SDS011;10573;50.936;6.978;2024-01-07T03:01:23;22.85;;;16.98;;
20824;SDS011;10573;50.936;6.978;2024-01-07T03:03:49;23.88;;;17.20;;
20824;SDS011;10573;50.936;6.978;2024-01-07T03:06:15;24.20;;;17.10;;
20824;SDS011;10573;50.936;6.978;2024-01-07T03:08:41;24.60;;;17.33;;
20824;SDS011;10573;50.936;6.978;2024-01-07T03:11:07;24.83;;;17.95;;
20824;SDS011;10573;50.936;6.978;2024-01-07T03:13:33;25.50;;;18.43;;
20824;SDS011;10573;50.936;6.978;2024-01-07T03:15:58;24.77;;;17.02;;
20824;SDS011;10573;50.936;6.978;2024-01-07T03:18:24;24.67;;;17.05;;
20824;SDS011;10573;50.936;6.978;2024-01-07T03:20:49;23.37;;;17.27;;
20824;SDS011;10573;50.936;6.978;2024-01-07T03:23:14;24.53;;;16.90;;
20824;SDS011;10573;50.936;6.978;2024-01-07T03:25:40;27.58;;;18.25;;
20824;SDS011;10573;50.936;6.978;2024-01-07T03:28:05;24.87;;;18.37;;
20824;SDS011;10573;50.936;6.978;2024-01-07T03:30:31;26.47;;;18.73;;
20824;SDS011;10573;50.936;6.978;2024-01-07T03:32:56;25.20;;;18.77;;
20824;SDS011;10573;50.936;6.978;2024-01-07T03:35:21;24.38;;;18.92;;
20824;SDS011;10573;50.936;6.978;2024-01-07T03:37:49;24.95;;;18.40;;
20824;SDS011;10573;50.936;6.978;2024-01-07T03:40:14;25.77;;;18.93;;
20824;SDS011;10573;50.936;6.978;2024-01-07T03:42:40;24.90;;;18.60;;
20824;SDS011;10573;50.936;6.978;2024-01-07T03:45:05;27.27;;;19.60;;
20824;SDS011;10573;50.936;6.978;2024-01-07T03:47:30;27.80;;;20.10;;
20824;SDS011;10573;50.936;6.978;2024-01-07T03:49:57;28.33;;;20.48;;
20824;SDS011;10573;50.936;6.978;2024-01-07T03:52:22;28.33;;;21.40;;
20824;SDS011;10573;50.936;6.978;2024-01-07T03:54:48;32.38;;;22.25;;
20824;SDS011;10573;50.936;6.978;2024-01-07T03:57:13;31.60;;;22.93;;
20824;SDS011;10573;50.936;6.978;2024-01-07T03:59:38;28.57;;;20.57;;
20824;SDS011;10573;50.936;6.978;2024-01-07T04:02:04;30.83;;;21.40;;
20824;SDS011;10573;50.936;6.978;2024-01-07T04:04:29;29.90;;;20.47;;
20824;SDS011;10573;50.936;6.978;2024-01-07T04:06:54;24.67;;;17.73;;
20824;SDS011;10573;50.936;6.978;2024-01-07T04:09:20;23.60;;;17.50;;
20824;SDS011;10573;50.936;6.978;2024-01-07T04:11:45;23.63;;;17.13;;
20824;SDS011;10573;50.936;6.978;2024-01-07T04:14:13;21.40;;;16.27;;
20824;SDS011;10573;50.936;6.978;2024-01-07T04:16:40;23.27;;;17.02;;
20824;SDS011;10573;50.936;6.978;2024-01-07T04:19:05;26.17;;;18.73;;
20824;SDS011;10573;50.936;6.978;2024-01-07T04:21:31;28.83;;;19.75;;
20824;SDS011;10573;50.936;6.978;2024-01-07T04:23:56;30.63;;;20.93;;
20824;SDS011;10573;50.936;6.978;2024-01-07T04:26:21;31.33;;;22.33;;
20824;SDS011;10573;50.936;6.978;2024-01-07T04:28:47;34.13;;;23.15;;
20824;SDS011;10573;50.936;6.978;2024-01-07T04:31:12;34.87;;;23.10;;
20824;SDS011;10573;50.936;6.978;2024-01-07T04:33:37;32.90;;;21.50;;
20824;SDS011;10573;50.936;6.978;2024-01-07T04:36:03;29.33;;;19.70;;
20824;SDS011;10573;50.936;6.978;2024-01-07T04:38:31;29.08;;;18.42;;
20824;SDS011;10573;50.936;6.978;2024-01-07T04:40:57;26.67;;;18.73;;
20824;SDS011;10573;50.936;6.978;2024-01-07T04:43:22;26.90;;;17.97;;
20824;SDS011;10573;50.936;6.978;2024-01-07T04:45:47;27.00;;;18.50;;
20824;SDS011;10573;50.936;6.978;2024-01-07T04:48:13;27.48;;;18.10;;
20824;SDS011;10573;50.936;6.978;2024-01-07T04:50:39;28.35;;;18.77;;
20824;SDS011;10573;50.936;6.978;2024-01-07T04:53:08;24.38;;;16.42;;
20824;SDS011;10573;50.936;6.978;2024-01-07T04:55:34;24.98;;;17.35;;
20824;SDS011;10573;50.936;6.978;2024-01-07T04:57:59;25.13;;;16.87;;
20824;SDS011;10573;50.936;6.978;2024-01-07T05:00:25;25.40;;;17.47;;
20824;SDS011;10573;50.936;6.978;2024-01-07T05:02:50;22.20;;;16.70;;
20824;SDS011;10573;50.936;6.978;2024-01-07T05:05:16;23.80;;;16.83;;
20824;SDS011;10573;50.936;6.978;2024-01-07T05:07:41;24.70;;;16.83;;
20824;SDS011;10573;50.936;6.978;2024-01-07T05:10:07;26.38;;;18.13;;
20824;SDS011;10573;50.936;6.978;2024-01-07T05:12:32;27.17;;;18.92;;
20824;SDS011;10573;50.936;6.978;2024-01-07T05:14:58;27.67;;;19.30;;
20824;SDS011;10573;50.936;6.978;2024-01-07T05:17:23;26.37;;;18.13;;
20824;SDS011;10573;50.936;6.978;2024-01-07T05:19:49;26.57;;;18.67;;
20824;SDS011;10573;50.936;6.978;2024-01-07T05:22:14;28.13;;;18.97;;
20824;SDS011;10573;50.936;6.978;2024-01-07T05:24:39;28.60;;;19.40;;
20824;SDS011;10573;50.936;6.978;2024-01-07T05:27:05;28.13;;;20.07;;
20824;SDS011;10573;50.936;6.978;2024-01-07T05:29:31;31.33;;;21.13;;
20824;SDS011;10573;50.936;6.978;2024-01-07T05:31:58;28.13;;;19.92;;
20824;SDS011;10573;50.936;6.978;2024-01-07T05:34:25;28.20;;;19.17;;
20824;SDS011;10573;50.936;6.978;2024-01-07T05:36:51;26.95;;;19.60;;
20824;SDS011;10573;50.936;6.978;2024-01-07T05:39:16;26.67;;;17.90;;
20824;SDS011;10573;50.936;6.978;2024-01-07T05:41:42;24.47;;;17.37;;
20824;SDS011;10573;50.936;6.978;2024-01-07T05:44:07;25.00;;;18.03;;
20824;SDS011;10573;50.936;6.978;2024-01-07T05:46:39;27.05;;;17.63;;
20824;SDS011;10573;50.936;6.978;2024-01-07T05:49:05;26.58;;;18.15;;
20824;SDS011;10573;50.936;6.978;2024-01-07T05:51:30;24.70;;;18.57;;
20824;SDS011;10573;50.936;6.978;2024-01-07T05:53:56;26.33;;;18.63;;
20824;SDS011;10573;50.936;6.978;2024-01-07T05:56:21;28.33;;;20.30;;
20824;SDS011;10573;50.936;6.978;2024-01-07T05:58:47;27.05;;;19.75;;
20824;SDS011;10573;50.936;6.978;2024-01-07T06:01:17;28.97;;;20.03;;
20824;SDS011;10573;50.936;6.978;2024-01-07T06:03:44;25.50;;;19.40;;
20824;SDS011;10573;50.936;6.978;2024-01-07T06:06:11;28.07;;;19.80;;
20824;SDS011;10573;50.936;6.978;2024-01-07T06:08:37;27.30;;;19.08;;
20824;SDS011;10573;50.936;6.978;2024-01-07T06:11:03;25.48;;;19.08;;
20824;SDS011;10573;50.936;6.978;2024-01-07T06:13:28;27.35;;;19.73;;
20824;SDS011;10573;50.936;6.978;2024-01-07T06:15:53;26.37;;;18.57;;
20824;SDS011;10573;50.936;6.978;2024-01-07T06:18:19;27.17;;;19.43;;
20824;SDS011;10573;50.936;6.978;2024-01-07T06:20:44;26.13;;;19.67;;
20824;SDS011;10573;50.936;6.978;2024-01-07T06:23:10;27.25;;;20.38;;
20824;SDS011;10573;50.936;6.978;2024-01-07T06:25:35;27.70;;;20.70;;
20824;SDS011;10573;50.936;6.978;2024-01-07T06:28:00;28.60;;;19.67;;
20824;SDS011;10573;50.936;6.978;2024-01-07T06:30:26;24.93;;;18.47;;
20824;SDS011;10573;50.936;6.978;2024-01-07T06:32:52;23.83;;;18.23;;
20824;SDS011;10573;50.936;6.978;2024-01-07T06:35:17;23.30;;;18.63;;
20824;SDS011;10573;50.936;6.978;2024-01-07T06:37:43;22.53;;;17.20;;
20824;SDS011;10573;50.936;6.978;2024-01-07T06:40:08;23.53;;;17.20;;
20824;SDS011;10573;50.936;6.978;2024-01-07T06:42:36;25.58;;;18.83;;
20824;SDS011;10573;50.936;6.978;2024-01-07T06:45:01;23.55;;;18.10;;
20824;SDS011;10573;50.936;6.978;2024-01-07T06:47:27;24.10;;;17.38;;
20824;SDS011;10573;50.936;6.978;2024-01-07T06:49:53;24.83;;;16.90;;
20824;SDS011;10573;50.936;6.978;2024-01-07T06:52:19;22.73;;;17.58;;
20824;SDS011;10573;50.936;6.978;2024-01-07T06:54:46;25.58;;;18.05;;
20824;SDS011;10573;50.936;6.978;2024-01-07T06:57:11;23.93;;;18.10;;
20824;SDS011;10573;50.936;6.978;2024-01-07T06:59:36;23.70;;;17.23;;
20824;SDS011;10573;50.936;6.978;2024-01-07T07:02:02;25.05;;;16.98;;
20824;SDS011;10573;50.936;6.978;2024-01-07T07:04:27;23.65;;;18.17;;
20824;SDS011;10573;50.936;6.978;2024-01-07T07:06:53;23.90;;;17.57;;
20824;SDS011;10573;50.936;6.978;2024-01-07T07:09:18;24.83;;;17.53;;
20824;SDS011;10573;50.936;6.978;2024-01-07T07:11:44;23.92;;;17.48;;
20824;SDS011;10573;50.936;6.978;2024-01-07T07:14:09;22.73;;;17.30;;
20824;SDS011;10573;50.936;6.978;2024-01-07T07:16:35;23.33;;;16.73;;
20824;SDS011;10573;50.936;6.978;2024-01-07T07:19:00;23.48;;;17.55;;
20824;SDS011;10573;50.936;6.978;2024-01-07T07:21:26;23.27;;;16.40;;
20824;SDS011;10573;50.936;6.978;2024-01-07T07:23:52;21.70;;;16.80;;
20824;SDS011;10573;50.936;6.978;2024-01-07T07:26:18;22.10;;;16.53;;
20824;SDS011;10573;50.936;6.978;2024-01-07T07:28:43;24.67;;;16.30;;
20824;SDS011;10573;50.936;6.978;2024-01-07T07:31:10;19.75;;;15.45;;
20824;SDS011;10573;50.936;6.978;2024-01-07T07:33:38;21.42;;;16.70;;
20824;SDS011;10573;50.936;6.978;2024-01-07T07:36:04;20.40;;;16.13;;
20824;SDS011;10573;50.936;6.978;2024-01-07T07:38:30;19.97;;;15.27;;
20824;SDS011;10573;50.936;6.978;2024-01-07T07:40:55;19.43;;;15.13;;
20824;SDS011;10573;50.936;6.978;2024-01-07T07:43:21;21.08;;;15.98;;
20824;SDS011;10573;50.936;6.978;2024-01-07T07:45:46;18.90;;;15.27;;
20824;SDS011;10573;50.936;6.978;2024-01-07T07:48:12;21.33;;;15.32;;
20824;SDS011;10573;50.936;6.978;2024-01-07T07:50:37;18.97;;;14.60;;
20824;SDS011;10573;50.936;6.978;2024-01-07T07:53:03;19.10;;;15.00;;
20824;SDS011;10573;50.936;6.978;2024-01-07T07:55:28;19.40;;;15.40;;
20824;SDS011;10573;50.936;6.978;2024-01-07T07:57:53;19.80;;;15.23;;
20824;SDS011;10573;50.936;6.978;2024-01-07T08:00:19;20.70;;;15.55;;
20824;SDS011;10573;50.936;6.978;2024-01-07T08:02:44;21.53;;;16.10;;
20824;SDS011;10573;50.936;6.978;2024-01-07T08:05:11;19.37;;;15.47;;
20824;SDS011;10573;50.936;6.978;2024-01-07T08:07:36;21.35;;;16.00;;
20824;SDS011;10573;50.936;6.978;2024-01-07T08:10:02;17.88;;;13.80;;
20824;SDS011;10573;50.936;6.978;2024-01-07T08:12:28;19.25;;;14.88;;
20824;SDS011;10573;50.936;6.978;2024-01-07T08:14:53;18.83;;;15.20;;
20824;SDS011;10573;50.936;6.978;2024-01-07T08:17:18;18.90;;;15.05;;
20824;SDS011;10573;50.936;6.978;2024-01-07T08:19:44;20.25;;;15.07;;
20824;SDS011;10573;50.936;6.978;2024-01-07T08:22:09;18.70;;;15.50;;
20824;SDS011;10573;50.936;6.978;2024-01-07T08:24:35;19.50;;;15.10;;
20824;SDS011;10573;50.936;6.978;2024-01-07T08:27:01;17.25;;;13.93;;
20824;SDS011;10573;50.936;6.978;2024-01-07T08:29:27;19.67;;;15.13;;
20824;SDS011;10573;50.936;6.978;2024-01-07T08:31:53;21.37;;;15.10;;
20824;SDS011;10573;50.936;6.978;2024-01-07T08:34:18;19.63;;;15.33;;
20824;SDS011;10573;50.936;6.978;2024-01-07T08:36:44;19.47;;;14.87;;
20824;SDS011;10573;50.936;6.978;2024-01-07T08:39:09;19.40;;;15.30;;
20824;SDS011;10573;50.936;6.978;2024-01-07T08:41:36;19.48;;;14.73;;
20824;SDS011;10573;50.936;6.978;2024-01-07T08:44:01;19.93;;;15.20;;
20824;SDS011;10573;50.936;6.978;2024-01-07T08:46:26;21.10;;;15.17;;
20824;SDS011;10573;50.936;6.978;2024-01-07T08:48:52;19.20;;;15.23;;
20824;SDS011;10573;50.936;6.978;2024-01-07T08:51:17;21.67;;;16.02;;
20824;SDS011;10573;50.936;6.978;2024-01-07T08:53:42;20.10;;;15.50;;
20824;SDS011;10573;50.936;6.978;2024-01-07T08:56:08;22.67;;;16.33;;
20824;SDS011;10573;50.936;6.978;2024-01-07T08:58:33;22.47;;;16.50;;
20824;SDS011;10573;50.936;6.978;2024-01-07T09:00:59;22.20;;;16.17;;
20824;SDS011;10573;50.936;6.978;2024-01-07T09:03:24;20.88;;;15.82;;
20824;SDS011;10573;50.936;6.978;2024-01-07T09:05:50;22.00;;;16.25;;
20824;SDS011;10573;50.936;6.978;2024-01-07T09:08:15;21.50;;;16.03;;
20824;SDS011;10573;50.936;6.978;2024-01-07T09:10:41;24.50;;;17.50;;
20824;SDS011;10573;50.936;6.978;2024-01-07T09:13:06;23.47;;;17.37;;
20824;SDS011;10573;50.936;6.978;2024-01-07T09:15:32;22.88;;;16.98;;
20824;SDS011;10573;50.936;6.978;2024-01-07T09:17:57;23.00;;;16.95;;
20824;SDS011;10573;50.936;6.978;2024-01-07T09:20:23;24.10;;;17.00;;
20824;SDS011;10573;50.936;6.978;2024-01-07T09:22:49;23.27;;;17.25;;
20824;SDS011;10573;50.936;6.978;2024-01-07T09:25:14;24.23;;;17.20;;
20824;SDS011;10573;50.936;6.978;2024-01-07T09:27:40;22.67;;;16.95;;
20824;SDS011;10573;50.936;6.978;2024-01-07T09:30:05;21.13;;;15.63;;
20824;SDS011;10573;50.936;6.978;2024-01-07T09:32:31;21.30;;;15.43;;
20824;SDS011;10573;50.936;6.978;2024-01-07T09:34:57;21.63;;;15.05;;
20824;SDS011;10573;50.936;6.978;2024-01-07T09:37:23;21.15;;;15.05;;
20824;SDS011;10573;50.936;6.978;2024-01-07T09:39:48;21.63;;;15.87;;
20824;SDS011;10573;50.936;6.978;2024-01-07T09:42:14;19.13;;;14.20;;
20824;SDS011;10573;50.936;6.978;2024-01-07T09:44:41;20.10;;;15.30;;
20824;SDS011;10573;50.936;6.978;2024-01-07T09:47:14;18.13;;;13.90;;
20824;SDS011;10573;50.936;6.978;2024-01-07T09:49:40;18.38;;;13.82;;
20824;SDS011;10573;50.936;6.978;2024-01-07T09:52:06;19.40;;;13.73;;
20824;SDS011;10573;50.936;6.978;2024-01-07T09:54:33;17.67;;;13.45;;
20824;SDS011;10573;50.936;6.978;2024-01-07T09:57:02;17.38;;;12.77;;
20824;SDS011;10573;50.936;6.978;2024-01-07T09:59:29;13.85;;;11.05;;
20824;SDS011;10573;50.936;6.978;2024-01-07T10:01:55;13.95;;;11.38;;
20824;SDS011;10573;50.936;6.978;2024-01-07T10:04:22;12.43;;;10.05;;
20824;SDS011;10573;50.936;6.978;2024-01-07T10:06:48;11.60;;;9.90;;
20824;SDS011;10573;50.936;6.978;2024-01-07T10:09:17;12.03;;;9.60;;
20824;SDS011;10573;50.936;6.978;2024-01-07T10:11:43;9.27;;;8.38;;
20824;SDS011;10573;50.936;6.978;2024-01-07T10:14:09;10.00;;;8.00;;
20824;SDS011;10573;50.936;6.978;2024-01-07T10:16:35;8.30;;;7.43;;
20824;SDS011;10573;50.936;6.978;2024-01-07T10:19:00;8.17;;;6.77;;
20824;SDS011;10573;50.936;6.978;2024-01-07T10:21:26;7.60;;;6.80;;
20824;SDS011;10573;50.936;6.978;2024-01-07T10:23:55;7.50;;;6.80;;
20824;SDS011;10573;50.936;6.978;2024-01-07T10:26:32;8.30;;;7.45;;
20824;SDS011;10573;50.936;6.978;2024-01-07T10:28:57;7.90;;;7.10;;
20824;SDS011;10573;50.936;6.978;2024-01-07T10:31:23;8.37;;;7.50;;
20824;SDS011;10573;50.936;6.978;2024-01-07T10:33:49;9.33;;;8.33;;
20824;SDS011;10573;50.936;6.978;2024-01-07T10:36:14;10.30;;;9.20;;
20824;SDS011;10573;50.936;6.978;2024-01-07T10:38:41;11.63;;;10.10;;
20824;SDS011;10573;50.936;6.978;2024-01-07T10:41:09;14.20;;;11.15;;
20824;SDS011;10573;50.936;6.978;2024-01-07T10:43:36;13.70;;;10.93;;
20824;SDS011;10573;50.936;6.978;2024-01-07T10:46:04;13.35;;;11.32;;
20824;SDS011;10573;50.936;6.978;2024-01-07T10:48:30;14.52;;;11.52;;
20824;SDS011;10573;50.936;6.978;2024-01-07T10:50:59;14.65;;;11.57;;
20824;SDS011;10573;50.936;6.978;2024-01-07T10:53:25;14.95;;;12.25;;
20824;SDS011;10573;50.936;6.978;2024-01-07T10:56:11;16.93;;;12.20;;
20824;SDS011;10573;50.936;6.978;2024-01-07T10:58:38;15.20;;;12.55;;
20824;SDS011;10573;50.936;6.978;2024-01-07T11:01:05;17.23;;;13.63;;
20824;SDS011;10573;50.936;6.978;2024-01-07T11:09:02;18.08;;;13.13;;
20824;SDS011;10573;50.936;6.978;2024-01-07T11:11:40;17.35;;;13.43;;
20824;SDS011;10573;50.936;6.978;2024-01-07T11:16:57;19.88;;;14.65;;
20824;SDS011;10573;50.936;6.978;2024-01-07T11:19:22;19.97;;;14.87;;
20824;SDS011;10573;50.936;6.978;2024-01-07T11:21:48;19.27;;;14.88;;
20824;SDS011;10573;50.936;6.978;2024-01-07T11:27:03;17.90;;;13.70;;
20824;SDS011;10573;50.936;6.978;2024-01-07T11:29:31;17.60;;;13.90;;
20824;SDS011;10573;50.936;6.978;2024-01-07T11:31:56;20.25;;;14.07;;
20824;SDS011;10573;50.936;6.978;2024-01-07T11:34:41;18.53;;;14.10;;
20824;SDS011;10573;50.936;6.978;2024-01-07T11:37:12;19.55;;;14.57;;
20824;SDS011;10573;50.936;6.978;2024-01-07T11:39:38;19.35;;;15.10;;
20824;SDS011;10573;50.936;6.978;2024-01-07T11:42:07;19.63;;;15.07;;
20824;SDS011;10573;50.936;6.978;2024-01-07T11:44:35;19.20;;;14.17;;
20824;SDS011;10573;50.936;6.978;2024-01-07T11:47:04;18.67;;;14.37;;
20824;SDS011;10573;50.936;6.978;2024-01-07T11:49:30;17.70;;;13.73;;
20824;SDS011;10573;50.936;6.978;2024-01-07T11:51:57;19.95;;;14.18;;
20824;SDS011;10573;50.936;6.978;2024-01-07T11:54:22;19.73;;;13.90;;
20824;SDS011;10573;50.936;6.978;2024-01-07T11:56:48;18.67;;;13.80;;
20824;SDS011;10573;50.936;6.978;2024-01-07T11:59:13;17.20;;;13.83;;
20824;SDS011;10573;50.936;6.978;2024-01-07T12:01:39;19.40;;;14.43;;
20824;SDS011;10573;50.936;6.978;2024-01-07T12:04:04;20.07;;;14.30;;
20824;SDS011;10573;50.936;6.978;2024-01-07T12:06:29;16.40;;;13.35;;
20824;SDS011;10573;50.936;6.978;2024-01-07T12:08:55;19.05;;;13.68;;
20824;SDS011;10573;50.936;6.978;2024-01-07T12:11:20;17.50;;;13.77;;
20824;SDS011;10573;50.936;6.978;2024-01-07T12:13:46;17.30;;;13.45;;
20824;SDS011;10573;50.936;6.978;2024-01-07T12:16:12;17.97;;;12.73;;
20824;SDS011;10573;50.936;6.978;2024-01-07T12:18:38;17.97;;;13.60;;
20824;SDS011;10573;50.936;6.978;2024-01-07T12:21:04;16.33;;;12.55;;
20824;SDS011;10573;50.936;6.978;2024-01-07T12:23:33;15.80;;;12.67;;
20824;SDS011;10573;50.936;6.978;2024-01-07T12:26:07;18.23;;;12.52;;
20824;SDS011;10573;50.936;6.978;2024-01-07T12:28:34;15.93;;;12.40;;
20824;SDS011;10573;50.936;6.978;2024-01-07T12:30:59;15.13;;;11.73;;
20824;SDS011;10573;50.936;6.978;2024-01-07T12:33:26;14.55;;;11.52;;
20824;SDS011;10573;50.936;6.978;2024-01-07T12:35:55;17.65;;;12.48;;
20824;SDS011;10573;50.936;6.978;2024-01-07T12:38:24;16.67;;;11.30;;
20824;SDS011;10573;50.936;6.978;2024-01-07T12:40:50;14.25;;;11.80;;
20824;SDS011;10573;50.936;6.978;2024-01-07T12:43:16;16.07;;;11.63;;
20824;SDS011;10573;50.936;6.978;2024-01-07T12:45:41;14.60;;;10.50;;
20824;SDS011;10573;50.936;6.978;2024-01-07T12:48:06;15.87;;;11.37;;
20824;SDS011;10573;50.936;6.978;2024-01-07T12:50:32;14.13;;;11.23;;
20824;SDS011;10573;50.936;6.978;2024-01-07T12:52:58;16.35;;;10.85;;
20824;SDS011;10573;50.936;6.978;2024-01-07T12:55:24;14.15;;;10.55;;
20824;SDS011;10573;50.936;6.978;2024-01-07T12:57:50;15.32;;;11.15;;
20824;SDS011;10573;50.936;6.978;2024-01-07T13:00:16;16.20;;;11.33;;
20824;SDS011;10573;50.936;6.978;2024-01-07T13:02:42;13.27;;;9.90;;
20824;SDS011;10573;50.936;6.978;2024-01-07T13:05:08;12.80;;;9.50;;
20824;SDS011;10573;50.936;6.978;2024-01-07T13:07:33;14.27;;;10.25;;
20824;SDS011;10573;50.936;6.978;2024-01-07T13:09:59;13.83;;;9.77;;
20824;SDS011;10573;50.936;6.978;2024-01-07T13:12:25;13.17;;;9.27;;
20824;SDS011;10573;50.936;6.978;2024-01-07T13:14:51;11.35;;;8.50;;
20824;SDS011;10573;50.936;6.978;2024-01-07T13:17:18;12.95;;;8.93;;
20824;SDS011;10573;50.936;6.978;2024-01-07T13:19:43;11.05;;;8.15;;
20824;SDS011;10573;50.936;6.978;2024-01-07T13:22:09;10.37;;;7.67;;
20824;SDS011;10573;50.936;6.978;2024-01-07T13:24:36;8.88;;;7.78;;
20824;SDS011;10573;50.936;6.978;2024-01-07T13:27:01;10.15;;;7.80;;
20824;SDS011;10573;50.936;6.978;2024-01-07T13:29:27;9.50;;;7.00;;
20824;SDS011;10573;50.936;6.978;2024-01-07T13:31:53;10.97;;;7.13;;
20824;SDS011;10573;50.936;6.978;2024-01-07T13:34:18;8.73;;;6.73;;
20824;SDS011;10573;50.936;6.978;2024-01-07T13:36:44;9.07;;;6.10;;
20824;SDS011;10573;50.936;6.978;2024-01-07T13:39:09;8.05;;;6.60;;
20824;SDS011;10573;50.936;6.978;2024-01-07T13:41:35;6.73;;;5.90;;
20824;SDS011;10573;50.936;6.978;2024-01-07T13:44:01;9.00;;;6.10;;
20824;SDS011;10573;50.936;6.978;2024-01-07T13:46:28;7.70;;;6.15;;
20824;SDS011;10573;50.936;6.978;2024-01-07T13:48:53;7.95;;;6.15;;
20824;SDS011;10573;50.936;6.978;2024-01-07T13:51:19;6.70;;;6.00;;
20824;SDS011;10573;50.936;6.978;2024-01-07T13:53:44;6.72;;;5.78;;
20824;SDS011;10573;50.936;6.978;2024-01-07T13:56:13;7.60;;;6.00;;
20824;SDS011;10573;50.936;6.978;2024-01-07T13:58:38;7.03;;;6.30;;
20824;SDS011;10573;50.936;6.978;2024-01-07T14:01:04;7.07;;;6.30;;
20824;SDS011;10573;50.936;6.978;2024-01-07T14:03:30;6.70;;;5.70;;
20824;SDS011;10573;50.936;6.978;2024-01-07T14:05:57;6.88;;;6.10;;
20824;SDS011;10573;50.936;6.978;2024-01-07T14:08:23;6.63;;;5.90;;
20824;SDS011;10573;50.936;6.978;2024-01-07T14:10:48;6.60;;;6.00;;
20824;SDS011;10573;50.936;6.978;2024-01-07T14:13:14;7.90;;;6.70;;
20824;SDS011;10573;50.936;6.978;2024-01-07T14:15:39;6.40;;;5.80;;
20824;SDS011;10573;50.936;6.978;2024-01-07T14:18:05;6.10;;;5.60;;
20824;SDS011;10573;50.936;6.978;2024-01-07T14:20:30;6.53;;;5.63;;
20824;SDS011;10573;50.936;6.978;2024-01-07T14:22:56;7.35;;;6.57;;
20824;SDS011;10573;50.936;6.978;2024-01-07T14:25:21;7.15;;;6.45;;
20824;SDS011;10573;50.936;6.978;2024-01-07T14:27:47;6.40;;;5.80;;